createdAt,value
2023-09-23T00:01:16.326Z,5.00
2023-09-23T00:03:44.816Z,5.85
2023-09-23T00:06:11.555Z,5.90
2023-09-23T00:08:38.335Z,6.38
2023-09-23T00:11:05.650Z,5.97
2023-09-23T00:13:33.596Z,7.05
2023-09-23T00:16:00.533Z,6.97
2023-09-23T00:18:28.015Z,7.70
2023-09-23T00:20:56.035Z,7.78
2023-09-23T00:23:22.721Z,8.57
2023-09-23T00:25:50.407Z,9.45
2023-09-23T00:28:17.150Z,7.78
2023-09-23T00:30:47.515Z,8.52
2023-09-23T00:33:17.994Z,6.85
2023-09-23T00:39:31.949Z,8.05
2023-09-23T00:41:58.523Z,6.22
2023-09-23T00:44:25.738Z,5.57
2023-09-23T00:46:52.296Z,6.32
2023-09-23T00:49:18.897Z,6.43
2023-09-23T00:51:45.381Z,6.80
2023-09-23T00:54:15.773Z,7.10
2023-09-23T00:56:42.879Z,7.35
2023-09-23T00:59:09.505Z,6.75
2023-09-23T01:01:36.134Z,8.27
2023-09-23T01:04:02.882Z,7.25
2023-09-23T01:06:30.591Z,4.82
2023-09-23T01:08:58.568Z,4.80
2023-09-23T01:11:27.376Z,4.47
2023-09-23T01:13:54.285Z,4.47
2023-09-23T01:16:23.883Z,3.97
2023-09-23T01:18:51.249Z,4.30
2023-09-23T01:21:17.795Z,4.13
2023-09-23T01:23:47.674Z,3.47
2023-09-23T01:26:14.298Z,3.97
2023-09-23T01:28:41.167Z,2.83
2023-09-23T01:31:08.745Z,2.65
2023-09-23T01:33:35.771Z,2.13
2023-09-23T01:36:05.590Z,1.38
2023-09-23T01:38:32.767Z,1.10
2023-09-23T01:41:03.117Z,1.17
2023-09-23T01:43:30.389Z,1.58
2023-09-23T01:46:03.576Z,2.30
2023-09-23T01:48:31.089Z,2.00
2023-09-23T01:51:00.853Z,2.10
2023-09-23T01:53:29.529Z,1.80
2023-09-23T01:55:56.552Z,1.70
2023-09-23T01:58:23.901Z,1.98
2023-09-23T02:00:55.400Z,2.75
2023-09-23T02:03:24.142Z,2.47
2023-09-23T02:05:50.925Z,2.60
2023-09-23T02:08:17.556Z,2.83
2023-09-23T02:10:45.971Z,2.55
2023-09-23T02:15:40.214Z,2.35
2023-09-23T02:18:07.772Z,2.90
2023-09-23T02:20:35.610Z,2.85
2023-09-23T02:23:02.210Z,1.73
2023-09-23T02:25:28.774Z,1.92
2023-09-23T02:27:56.981Z,1.48
2023-09-23T02:30:23.978Z,1.40
2023-09-23T02:32:50.565Z,0.90
2023-09-23T02:35:17.800Z,1.10
2023-09-23T02:37:46.410Z,1.02
2023-09-23T02:40:16.540Z,1.10
2023-09-23T02:42:48.012Z,1.00
2023-09-23T02:45:16.556Z,1.02
2023-09-23T02:47:45.289Z,1.52
2023-09-23T02:50:14.752Z,1.60
2023-09-23T02:52:42.520Z,1.98
2023-09-23T02:55:17.143Z,2.05
2023-09-23T03:00:20.300Z,3.05
2023-09-23T03:02:51.569Z,4.40
2023-09-23T03:05:18.402Z,4.97
2023-09-23T03:07:49.725Z,5.68
2023-09-23T03:10:20.213Z,5.55
2023-09-23T03:12:58.053Z,5.53
2023-09-23T03:15:34.834Z,5.63
2023-09-23T03:18:02.191Z,6.40
2023-09-23T03:20:28.877Z,6.95
2023-09-23T03:22:56.896Z,5.63
2023-09-23T03:25:23.534Z,5.97
2023-09-23T03:27:52.376Z,6.63
2023-09-23T03:30:20.595Z,5.28
2023-09-23T03:32:47.840Z,4.20
2023-09-23T03:35:25.949Z,4.15
2023-09-23T03:37:53.129Z,4.07
2023-09-23T03:40:26.097Z,3.80
2023-09-23T03:42:52.740Z,3.42
2023-09-23T03:45:19.396Z,3.92
2023-09-23T03:47:47.666Z,3.65
2023-09-23T03:52:42.615Z,3.22
2023-09-23T03:55:10.324Z,2.55
2023-09-23T03:57:36.867Z,2.58
2023-09-23T04:00:11.965Z,2.60
2023-09-23T04:02:38.809Z,2.55
2023-09-23T04:05:06.761Z,2.83
2023-09-23T04:07:33.747Z,2.92
2023-09-23T04:10:00.365Z,2.85
2023-09-23T04:12:26.951Z,2.95
2023-09-23T04:14:53.498Z,3.30
2023-09-23T04:17:20.142Z,3.50
2023-09-23T04:19:46.829Z,3.67
2023-09-23T04:22:13.399Z,3.28
2023-09-23T04:24:39.930Z,3.25
2023-09-23T04:27:06.590Z,3.78
2023-09-23T04:29:33.342Z,2.80
2023-09-23T04:32:00.272Z,2.70
2023-09-23T04:34:26.837Z,2.90
2023-09-23T04:36:54.044Z,2.10
2023-09-23T04:39:20.799Z,1.92
2023-09-23T04:41:47.334Z,2.35
2023-09-23T04:44:13.925Z,2.10
2023-09-23T04:46:40.581Z,1.50
2023-09-23T04:49:07.214Z,1.40
2023-09-23T04:51:34.112Z,1.70
2023-09-23T04:54:00.648Z,2.20
2023-09-23T04:56:27.221Z,1.85
2023-09-23T04:58:59.602Z,1.90
2023-09-23T05:01:26.220Z,2.17
2023-09-23T05:03:53.413Z,1.70
2023-09-23T05:06:20.035Z,1.60
2023-09-23T05:08:47.442Z,1.83
2023-09-23T05:11:14.251Z,1.52
2023-09-23T05:13:42.043Z,1.65
2023-09-23T05:16:08.667Z,2.00
2023-09-23T05:18:35.257Z,1.58
2023-09-23T05:21:01.804Z,1.48
2023-09-23T05:23:29.687Z,1.60
2023-09-23T05:25:59.135Z,1.83
2023-09-23T05:28:28.880Z,1.90
2023-09-23T05:30:55.554Z,2.03
2023-09-23T05:33:22.177Z,1.45
2023-09-23T05:35:48.837Z,1.75
2023-09-23T05:38:15.375Z,1.67
2023-09-23T05:40:42.216Z,1.80
2023-09-23T05:43:08.741Z,1.70
2023-09-23T05:45:36.847Z,1.70
2023-09-23T05:48:06.008Z,1.40
2023-09-23T05:50:32.991Z,1.65
2023-09-23T05:52:59.661Z,1.58
2023-09-23T05:55:26.229Z,1.70
2023-09-23T05:57:54.192Z,1.50
2023-09-23T06:00:20.817Z,1.42
2023-09-23T06:02:49.110Z,1.75
2023-09-23T06:05:16.146Z,1.77
2023-09-23T06:07:42.822Z,1.67
2023-09-23T06:10:12.350Z,1.77
2023-09-23T06:12:39.438Z,2.10
2023-09-23T06:15:06.444Z,1.30
2023-09-23T06:17:33.848Z,1.55
2023-09-23T06:20:01.961Z,1.27
2023-09-23T06:22:28.863Z,1.58
2023-09-23T06:24:55.895Z,1.65
2023-09-23T06:27:22.504Z,1.63
2023-09-23T06:29:49.132Z,1.40
2023-09-23T06:32:15.810Z,1.92
2023-09-23T06:34:42.414Z,1.73
2023-09-23T06:37:08.946Z,2.38
2023-09-23T06:39:35.454Z,1.92
2023-09-23T06:42:02.025Z,1.85
2023-09-23T06:44:28.899Z,2.28
2023-09-23T06:46:55.627Z,1.70
2023-09-23T06:49:22.284Z,1.80
2023-09-23T06:51:49.048Z,1.73
2023-09-23T06:54:15.566Z,2.38
2023-09-23T06:56:42.073Z,1.70
2023-09-23T06:59:09.148Z,2.40
2023-09-23T07:01:36.343Z,1.80
2023-09-23T07:04:03.493Z,2.08
2023-09-23T07:06:30.306Z,2.10
2023-09-23T07:08:56.947Z,2.17
2023-09-23T07:11:24.785Z,2.03
2023-09-23T07:13:51.508Z,2.55
2023-09-23T07:16:18.255Z,2.42
2023-09-23T07:18:45.996Z,2.78
2023-09-23T07:21:13.178Z,1.98
2023-09-23T07:23:39.864Z,2.15
2023-09-23T07:26:06.960Z,2.20
2023-09-23T07:28:33.654Z,1.77
2023-09-23T07:31:00.229Z,1.83
2023-09-23T07:33:26.760Z,2.30
2023-09-23T07:35:53.256Z,2.50
2023-09-23T07:38:19.819Z,2.35
2023-09-23T07:40:46.460Z,2.55
2023-09-23T07:43:13.024Z,2.00
2023-09-23T07:45:39.603Z,1.95
2023-09-23T07:48:06.585Z,2.08
2023-09-23T07:50:34.464Z,1.40
2023-09-23T07:53:01.167Z,1.50
2023-09-23T07:55:27.786Z,1.58
2023-09-23T07:57:54.323Z,1.55
2023-09-23T08:00:21.131Z,1.60
2023-09-23T08:02:47.726Z,1.95
2023-09-23T08:05:14.370Z,1.20
2023-09-23T08:07:40.919Z,1.20
2023-09-23T08:10:07.607Z,1.80
2023-09-23T08:12:35.440Z,1.27
2023-09-23T08:15:01.997Z,1.85
2023-09-23T08:17:28.992Z,1.35
2023-09-23T08:19:55.868Z,1.83
2023-09-23T08:22:22.579Z,2.03
2023-09-23T08:24:49.119Z,2.00
2023-09-23T08:27:15.678Z,1.92
2023-09-23T08:29:42.243Z,1.73
2023-09-23T08:32:08.813Z,1.75
2023-09-23T08:34:35.407Z,1.20
2023-09-23T08:37:02.153Z,1.52
2023-09-23T08:39:28.972Z,1.48
2023-09-23T08:41:56.983Z,1.40
2023-09-23T08:46:53.974Z,1.40
2023-09-23T08:49:23.912Z,1.65
2023-09-23T08:51:57.283Z,1.70
2023-09-23T08:54:29.910Z,2.90
2023-09-23T08:56:57.303Z,1.40
2023-09-23T08:59:23.866Z,1.42
2023-09-23T09:01:50.582Z,1.42
2023-09-23T09:04:17.400Z,1.27
2023-09-23T09:06:51.073Z,1.50
2023-09-23T09:09:18.383Z,1.63
2023-09-23T09:11:48.909Z,1.52
2023-09-23T09:14:16.347Z,1.65
2023-09-23T09:16:43.137Z,1.17
2023-09-23T09:19:09.901Z,1.40
2023-09-23T09:21:36.812Z,1.17
2023-09-23T09:24:03.855Z,1.42
2023-09-23T09:26:31.270Z,1.30
2023-09-23T09:28:57.887Z,1.17
2023-09-23T09:31:32.794Z,1.33
2023-09-23T09:34:05.228Z,1.30
2023-09-23T09:36:35.339Z,1.02
2023-09-23T09:39:13.150Z,1.00
2023-09-23T09:41:52.005Z,1.20
2023-09-23T09:44:22.552Z,1.20
2023-09-23T09:46:51.559Z,1.10
2023-09-23T09:49:18.543Z,1.50
2023-09-23T09:51:50.202Z,1.40
2023-09-23T09:54:23.579Z,1.30
2023-09-23T09:56:52.233Z,1.20
2023-09-23T09:59:30.245Z,1.27
2023-09-23T10:01:58.285Z,1.52
2023-09-23T10:04:30.896Z,1.70
2023-09-23T10:06:57.773Z,1.50
2023-09-23T10:09:28.416Z,1.30
2023-09-23T10:11:56.077Z,1.40
2023-09-23T10:14:23.730Z,1.63
2023-09-23T10:16:51.662Z,1.30
2023-09-23T10:21:48.422Z,1.35
2023-09-23T10:24:21.335Z,1.75
2023-09-23T10:26:48.008Z,1.30
2023-09-23T10:29:14.794Z,1.27
2023-09-23T10:31:41.881Z,1.52
2023-09-23T10:34:09.785Z,1.92
2023-09-23T10:36:37.684Z,2.67
2023-09-23T10:39:07.155Z,1.73
2023-09-23T10:41:36.117Z,1.40
2023-09-23T10:44:04.039Z,1.70
2023-09-23T10:46:31.614Z,1.73
2023-09-23T10:48:58.482Z,1.40
2023-09-23T10:51:25.322Z,1.77
2023-09-23T10:53:51.859Z,2.40
2023-09-23T10:56:22.357Z,2.20
2023-09-23T10:58:52.067Z,2.33
2023-09-23T11:01:20.055Z,2.38
2023-09-23T11:03:46.833Z,2.53
2023-09-23T11:06:16.997Z,2.70
2023-09-23T11:08:43.695Z,2.80
2023-09-23T11:11:12.848Z,2.75
2023-09-23T11:13:39.512Z,2.00
2023-09-23T11:16:12.098Z,1.95
2023-09-23T11:18:39.022Z,1.95
2023-09-23T11:21:06.261Z,1.95
2023-09-23T11:23:34.060Z,1.70
2023-09-23T11:26:01.016Z,2.25
2023-09-23T11:28:28.702Z,2.03
2023-09-23T11:33:53.520Z,2.10
2023-09-23T11:36:20.052Z,2.28
2023-09-23T11:38:46.751Z,2.30
2023-09-23T11:41:13.416Z,2.50
2023-09-23T11:43:39.990Z,1.98
2023-09-23T11:46:06.573Z,2.40
2023-09-23T11:48:33.255Z,2.22
2023-09-23T11:50:59.888Z,2.33
2023-09-23T11:53:26.503Z,2.83
2023-09-23T11:55:53.156Z,2.17
2023-09-23T11:58:20.851Z,2.33
2023-09-23T12:00:48.994Z,2.33
2023-09-23T12:03:19.606Z,2.08
2023-09-23T12:05:46.297Z,1.70
2023-09-23T12:08:12.948Z,1.60
2023-09-23T12:10:39.584Z,1.67
2023-09-23T12:13:08.079Z,1.67
2023-09-23T12:15:35.399Z,1.75
2023-09-23T12:18:02.299Z,1.70
2023-09-23T12:20:29.727Z,1.63
2023-09-23T12:22:58.738Z,1.30
2023-09-23T12:25:25.883Z,1.52
2023-09-23T12:27:52.484Z,2.05
2023-09-23T12:30:19.509Z,1.40
2023-09-23T12:32:46.939Z,1.42
2023-09-23T12:35:13.932Z,1.42
2023-09-23T12:37:40.810Z,1.70
2023-09-23T12:40:08.253Z,2.03
2023-09-23T12:42:35.147Z,1.50
2023-09-23T12:45:04.576Z,1.30
2023-09-23T12:47:48.967Z,1.73
2023-09-23T12:50:19.424Z,1.30
2023-09-23T12:52:46.102Z,1.45
2023-09-23T12:55:12.663Z,1.20
2023-09-23T12:57:39.329Z,1.48
2023-09-23T13:00:06.785Z,1.10
2023-09-23T13:02:33.478Z,1.23
2023-09-23T13:05:00.210Z,1.27
2023-09-23T13:07:26.870Z,1.25
2023-09-23T13:09:53.432Z,1.10
2023-09-23T13:12:19.956Z,1.02
2023-09-23T13:14:46.509Z,1.38
2023-09-23T13:17:13.054Z,1.65
2023-09-23T13:19:40.252Z,1.17
2023-09-23T13:22:06.770Z,0.90
2023-09-23T13:24:34.271Z,1.10
2023-09-23T13:27:00.899Z,1.17
2023-09-23T13:29:27.553Z,1.80
2023-09-23T13:31:54.077Z,1.00
2023-09-23T13:34:20.652Z,1.08
2023-09-23T13:36:47.174Z,1.30
2023-09-23T13:39:13.771Z,1.58
2023-09-23T13:41:40.376Z,1.20
2023-09-23T13:44:08.690Z,1.27
2023-09-23T13:46:35.735Z,1.30
2023-09-23T13:49:02.693Z,1.00
2023-09-23T13:51:29.257Z,1.77
2023-09-23T13:53:55.769Z,1.00
2023-09-23T13:56:22.446Z,0.95
2023-09-23T13:58:51.695Z,1.20
2023-09-23T14:01:19.560Z,1.13
2023-09-23T14:03:46.149Z,1.30
2023-09-23T14:06:12.747Z,1.27
2023-09-23T14:08:39.308Z,1.17
2023-09-23T14:11:06.409Z,1.20
2023-09-23T14:13:33.143Z,1.23
2023-09-23T14:15:59.669Z,1.25
2023-09-23T14:18:26.210Z,1.30
2023-09-23T14:20:53.297Z,1.48
2023-09-23T14:23:19.983Z,0.90
2023-09-23T14:25:46.769Z,1.20
2023-09-23T14:28:13.357Z,1.35
2023-09-23T14:30:39.995Z,1.45
2023-09-23T14:33:06.988Z,1.58
2023-09-23T14:35:33.608Z,1.30
2023-09-23T14:38:00.193Z,1.38
2023-09-23T14:40:28.363Z,1.30
2023-09-23T14:42:56.264Z,1.40
2023-09-23T14:45:23.586Z,1.90
2023-09-23T14:47:50.711Z,1.65
2023-09-23T14:50:17.439Z,1.70
2023-09-23T14:52:45.613Z,1.08
2023-09-23T14:55:12.551Z,1.30
2023-09-23T14:57:39.257Z,1.17
2023-09-23T15:00:06.593Z,1.63
2023-09-23T15:02:33.345Z,1.60
2023-09-23T15:05:00.198Z,1.35
2023-09-23T15:07:26.742Z,1.63
2023-09-23T15:09:53.737Z,1.00
2023-09-23T15:12:20.324Z,1.48
2023-09-23T15:14:47.624Z,1.40
2023-09-23T15:17:14.404Z,1.10
2023-09-23T15:19:41.156Z,0.98
2023-09-23T15:22:07.652Z,1.40
2023-09-23T15:24:34.446Z,1.55
2023-09-23T15:27:01.028Z,1.15
2023-09-23T15:29:28.456Z,0.90
2023-09-23T15:31:55.030Z,0.98
2023-09-23T15:34:23.610Z,0.90
2023-09-23T15:36:50.297Z,0.90
2023-09-23T15:39:16.847Z,0.80
2023-09-23T15:41:43.376Z,0.80
2023-09-23T15:44:10.584Z,0.80
2023-09-23T15:46:37.223Z,0.98
2023-09-23T15:49:04.038Z,0.73
2023-09-23T15:51:31.535Z,1.20
2023-09-23T15:53:58.830Z,0.95
2023-09-23T15:56:28.969Z,0.95
2023-09-23T15:58:55.722Z,0.88
2023-09-23T16:01:22.280Z,0.93
2023-09-23T16:03:48.984Z,0.90
2023-09-23T16:06:16.658Z,0.80
2023-09-23T16:08:43.246Z,0.93
2023-09-23T16:11:09.835Z,2.13
2023-09-23T16:13:36.421Z,2.42
2023-09-23T16:16:03.303Z,1.52
2023-09-23T16:18:30.012Z,1.05
2023-09-23T16:20:56.589Z,1.05
2023-09-23T16:23:23.191Z,0.75
2023-09-23T16:25:50.359Z,1.05
2023-09-23T16:28:16.967Z,1.10
2023-09-23T16:30:43.607Z,1.08
2023-09-23T16:33:10.401Z,0.93
2023-09-23T16:35:37.178Z,0.88
2023-09-23T16:38:03.767Z,0.90
2023-09-23T16:40:30.495Z,0.85
2023-09-23T16:42:57.250Z,1.23
2023-09-23T16:45:24.507Z,0.93
2023-09-23T16:47:51.181Z,1.05
2023-09-23T16:50:18.448Z,1.13
2023-09-23T16:52:45.097Z,0.90
2023-09-23T16:55:11.660Z,1.45
2023-09-23T16:57:38.369Z,1.40
2023-09-23T17:00:05.792Z,0.90
2023-09-23T17:02:32.455Z,1.20
2023-09-23T17:05:00.146Z,1.27
2023-09-23T17:07:27.049Z,0.90
2023-09-23T17:09:54.124Z,0.80
2023-09-23T17:12:20.675Z,1.00
2023-09-23T17:14:47.423Z,1.00
2023-09-23T17:17:14.126Z,1.00
2023-09-23T17:19:41.486Z,1.00
2023-09-23T17:22:10.223Z,1.10
2023-09-23T17:24:36.877Z,1.20
2023-09-23T17:27:04.310Z,1.17
2023-09-23T17:29:30.882Z,0.93
2023-09-23T17:31:57.531Z,1.00
2023-09-23T17:34:24.120Z,0.80
2023-09-23T17:36:50.712Z,1.10
2023-09-23T17:39:18.005Z,0.98
2023-09-23T17:41:44.602Z,1.20
2023-09-23T17:44:11.191Z,1.30
2023-09-23T17:46:37.919Z,1.20
2023-09-23T17:49:04.526Z,1.60
2023-09-23T17:51:31.116Z,1.25
2023-09-23T17:53:57.798Z,1.33
2023-09-23T17:56:28.368Z,1.10
2023-09-23T17:58:55.466Z,1.00
2023-09-23T18:01:22.060Z,1.25
2023-09-23T18:03:49.058Z,1.98
2023-09-23T18:06:16.686Z,1.30
2023-09-23T18:08:43.492Z,1.45
2023-09-23T18:11:13.792Z,1.40
2023-09-23T18:13:43.289Z,1.15
2023-09-23T18:16:09.933Z,1.25
2023-09-23T18:18:36.958Z,1.50
2023-09-23T18:21:03.832Z,1.92
2023-09-23T18:23:30.729Z,2.10
2023-09-23T18:25:57.528Z,1.40
2023-09-23T18:28:24.147Z,1.73
2023-09-23T18:30:50.676Z,1.40
2023-09-23T18:33:17.426Z,1.30
2023-09-23T18:35:44.178Z,1.70
2023-09-23T18:38:10.863Z,1.25
2023-09-23T18:40:37.512Z,1.50
2023-09-23T18:43:04.475Z,1.63
2023-09-23T18:45:31.081Z,2.05
2023-09-23T18:48:12.612Z,1.38
2023-09-23T18:50:46.145Z,1.15
2023-09-23T18:55:39.217Z,1.52
2023-09-23T18:58:07.376Z,1.40
2023-09-23T19:00:36.541Z,1.55
2023-09-23T19:03:03.956Z,1.90
2023-09-23T19:05:31.018Z,1.40
2023-09-23T19:07:57.518Z,1.83
2023-09-23T19:10:24.283Z,1.90
2023-09-23T19:12:51.001Z,1.73
2023-09-23T19:15:17.830Z,1.50
2023-09-23T19:17:45.311Z,1.70
2023-09-23T19:20:12.125Z,1.83
2023-09-23T19:22:38.899Z,1.80
2023-09-23T19:25:06.652Z,1.50
2023-09-23T19:27:33.343Z,1.70
2023-09-23T19:29:59.918Z,1.50
2023-09-23T19:32:26.530Z,2.10
2023-09-23T19:34:53.176Z,1.50
2023-09-23T19:37:19.914Z,2.25
2023-09-23T19:39:46.490Z,1.65
2023-09-23T19:42:13.126Z,1.77
2023-09-23T19:44:39.714Z,1.80
2023-09-23T19:47:07.520Z,1.80
2023-09-23T19:49:35.766Z,1.70
2023-09-23T19:54:28.755Z,1.52
2023-09-23T19:56:55.270Z,2.15
2023-09-23T19:59:22.037Z,1.50
2023-09-23T20:01:48.607Z,1.65
2023-09-23T20:04:15.324Z,1.70
2023-09-23T20:06:42.830Z,2.05
2023-09-23T20:09:10.163Z,2.13
2023-09-23T20:11:36.844Z,1.90
2023-09-23T20:14:03.663Z,1.95
2023-09-23T20:16:30.402Z,1.52
2023-09-23T20:18:58.907Z,2.05
2023-09-23T20:21:25.480Z,1.77
2023-09-23T20:23:52.727Z,2.25
2023-09-23T20:26:21.026Z,1.83
2023-09-23T20:31:16.420Z,1.60
2023-09-23T20:33:43.966Z,1.50
2023-09-23T20:36:10.636Z,1.95
2023-09-23T20:38:38.639Z,1.63
2023-09-23T20:41:10.640Z,1.90
2023-09-23T20:43:38.718Z,1.70
2023-09-23T20:46:11.504Z,2.10
2023-09-23T20:48:38.191Z,1.83
2023-09-23T20:51:05.262Z,2.33
2023-09-23T20:53:35.758Z,1.70
2023-09-23T20:56:06.210Z,1.52
2023-09-23T20:58:34.235Z,2.08
2023-09-23T21:01:01.837Z,2.05
2023-09-23T21:03:28.575Z,2.20
2023-09-23T21:05:55.297Z,1.45
2023-09-23T21:08:21.885Z,1.75
2023-09-23T21:10:48.743Z,2.28
2023-09-23T21:13:15.277Z,1.98
2023-09-23T21:15:41.849Z,2.17
2023-09-23T21:18:10.158Z,2.38
2023-09-23T21:20:38.359Z,2.10
2023-09-23T21:23:05.204Z,2.00
2023-09-23T21:25:32.127Z,3.15
2023-09-23T21:27:58.804Z,2.10
2023-09-23T21:30:25.339Z,1.98
2023-09-23T21:32:51.994Z,2.00
2023-09-23T21:35:18.729Z,2.00
2023-09-23T21:37:45.263Z,2.13
2023-09-23T21:40:12.669Z,1.92
2023-09-23T21:42:39.195Z,2.33
2023-09-23T21:45:06.357Z,3.30
2023-09-23T21:47:32.927Z,1.85
2023-09-23T21:49:59.613Z,1.95
2023-09-23T21:52:26.253Z,1.80
2023-09-23T21:54:52.849Z,2.30
2023-09-23T21:57:19.456Z,1.83
2023-09-23T21:59:46.071Z,2.33
2023-09-23T22:02:12.636Z,1.90
2023-09-23T22:04:39.238Z,2.13
2023-09-23T22:07:06.114Z,2.00
2023-09-23T22:09:33.283Z,1.60
2023-09-23T22:11:59.926Z,1.75
2023-09-23T22:14:27.853Z,2.13
2023-09-23T22:16:55.785Z,1.90
2023-09-23T22:19:22.410Z,1.67
2023-09-23T22:21:49.128Z,1.45
2023-09-23T22:24:17.166Z,1.80
2023-09-23T22:26:43.759Z,2.40
2023-09-23T22:29:11.674Z,1.25
2023-09-23T22:31:38.766Z,1.67
2023-09-23T22:34:05.354Z,1.77
2023-09-23T22:36:33.895Z,1.65
2023-09-23T22:39:00.882Z,1.80
2023-09-23T22:41:29.695Z,1.90
2023-09-23T22:43:57.031Z,1.92
2023-09-23T22:46:24.769Z,1.73
2023-09-23T22:48:52.811Z,1.67
2023-09-23T22:51:20.797Z,1.50
2023-09-23T22:53:47.870Z,1.27
2023-09-23T22:56:14.638Z,1.90
2023-09-23T22:58:42.061Z,1.88
2023-09-23T23:01:13.481Z,1.85
2023-09-23T23:03:40.192Z,1.50
2023-09-23T23:06:07.911Z,2.00
2023-09-23T23:08:35.591Z,1.55
2023-09-23T23:11:08.031Z,2.00
2023-09-23T23:13:36.746Z,1.40
2023-09-23T23:16:07.973Z,1.23
2023-09-23T23:18:35.092Z,1.73
2023-09-23T23:21:03.614Z,1.30
2023-09-23T23:23:31.318Z,1.70
2023-09-23T23:26:00.338Z,1.95
2023-09-23T23:28:28.227Z,2.15
2023-09-23T23:30:55.264Z,2.15
2023-09-23T23:33:22.196Z,1.70
2023-09-23T23:35:48.873Z,1.95
2023-09-23T23:38:15.837Z,2.17
2023-09-23T23:40:42.707Z,1.40
2023-09-23T23:43:10.456Z,1.95
2023-09-23T23:45:37.114Z,2.03
2023-09-23T23:48:04.061Z,2.03
2023-09-23T23:50:31.498Z,2.05
2023-09-23T23:52:58.253Z,1.90
2023-09-23T23:55:27.474Z,1.80
2023-09-23T23:57:54.235Z,1.40
